sensor_id;sensor_type;location;lat;lon;timestamp;temperature;humidity
5394;DHT22;2720;52.396;10.064;2023-02-01T00:00:27;4.80;99.90
5394;DHT22;2720;52.396;10.064;2023-02-01T00:02:54;4.80;99.90
5394;DHT22;2720;52.396;10.064;2023-02-01T00:05:21;4.80;99.90
5394;DHT22;2720;52.396;10.064;2023-02-01T00:07:48;4.80;99.90
5394;DHT22;2720;52.396;10.064;2023-02-01T00:10:17;4.80;99.90
5394;DHT22;2720;52.396;10.064;2023-02-01T00:12:45;4.80;99.90
5394;DHT22;2720;52.396;10.064;2023-02-01T00:15:12;4.80;99.90
5394;DHT22;2720;52.396;10.064;2023-02-01T00:17:39;4.80;99.90
5394;DHT22;2720;52.396;10.064;2023-02-01T00:20:07;4.80;99.90
5394;DHT22;2720;52.396;10.064;2023-02-01T00:22:34;4.80;99.90
5394;DHT22;2720;52.396;10.064;2023-02-01T00:25:01;4.90;99.90
5394;DHT22;2720;52.396;10.064;2023-02-01T00:27:29;4.80;99.90
5394;DHT22;2720;52.396;10.064;2023-02-01T00:29:56;4.80;99.90
5394;DHT22;2720;52.396;10.064;2023-02-01T00:32:23;4.80;99.90
5394;DHT22;2720;52.396;10.064;2023-02-01T00:34:50;4.70;99.90
5394;DHT22;2720;52.396;10.064;2023-02-01T00:37:17;4.80;99.90
5394;DHT22;2720;52.396;10.064;2023-02-01T00:39:44;4.80;99.90
5394;DHT22;2720;52.396;10.064;2023-02-01T00:42:11;4.80;99.90
5394;DHT22;2720;52.396;10.064;2023-02-01T00:44:39;4.90;99.90
5394;DHT22;2720;52.396;10.064;2023-02-01T00:47:06;4.80;99.90
5394;DHT22;2720;52.396;10.064;2023-02-01T00:49:33;4.80;99.90
5394;DHT22;2720;52.396;10.064;2023-02-01T00:52:00;4.80;99.90
5394;DHT22;2720;52.396;10.064;2023-02-01T00:54:27;4.80;99.90
5394;DHT22;2720;52.396;10.064;2023-02-01T00:56:54;4.70;99.90
5394;DHT22;2720;52.396;10.064;2023-02-01T00:59:21;4.80;99.90
5394;DHT22;2720;52.396;10.064;2023-02-01T01:01:49;4.80;99.90
5394;DHT22;2720;52.396;10.064;2023-02-01T01:04:16;4.80;99.90
5394;DHT22;2720;52.396;10.064;2023-02-01T01:06:43;4.80;99.90
5394;DHT22;2720;52.396;10.064;2023-02-01T01:09:11;4.70;99.90
5394;DHT22;2720;52.396;10.064;2023-02-01T01:11:38;4.70;99.90
5394;DHT22;2720;52.396;10.064;2023-02-01T01:14:06;4.60;99.90
5394;DHT22;2720;52.396;10.064;2023-02-01T01:16:34;4.60;99.90
5394;DHT22;2720;52.396;10.064;2023-02-01T01:19:03;4.60;99.90
5394;DHT22;2720;52.396;10.064;2023-02-01T01:21:31;4.60;99.90
5394;DHT22;2720;52.396;10.064;2023-02-01T01:23:58;4.60;99.90
5394;DHT22;2720;52.396;10.064;2023-02-01T01:26:27;4.70;99.90
5394;DHT22;2720;52.396;10.064;2023-02-01T01:28:55;4.60;99.90
5394;DHT22;2720;52.396;10.064;2023-02-01T01:31:22;4.70;99.90
5394;DHT22;2720;52.396;10.064;2023-02-01T01:33:51;4.80;99.90
5394;DHT22;2720;52.396;10.064;2023-02-01T01:36:20;4.80;99.90
5394;DHT22;2720;52.396;10.064;2023-02-01T01:38:47;4.70;99.90
5394;DHT22;2720;52.396;10.064;2023-02-01T01:41:16;4.70;99.90
5394;DHT22;2720;52.396;10.064;2023-02-01T01:43:55;4.80;99.90
5394;DHT22;2720;52.396;10.064;2023-02-01T01:46:24;4.80;99.90
5394;DHT22;2720;52.396;10.064;2023-02-01T01:48:55;4.90;99.90
5394;DHT22;2720;52.396;10.064;2023-02-01T01:51:26;4.90;99.90
5394;DHT22;2720;52.396;10.064;2023-02-01T01:54:00;4.80;99.90
5394;DHT22;2720;52.396;10.064;2023-02-01T01:56:29;4.80;99.90
5394;DHT22;2720;52.396;10.064;2023-02-01T01:58:56;4.80;99.90
5394;DHT22;2720;52.396;10.064;2023-02-01T02:01:23;4.80;99.90
5394;DHT22;2720;52.396;10.064;2023-02-01T02:03:51;4.80;99.90
5394;DHT22;2720;52.396;10.064;2023-02-01T02:06:39;4.70;99.90
5394;DHT22;2720;52.396;10.064;2023-02-01T02:09:07;4.70;99.90
5394;DHT22;2720;52.396;10.064;2023-02-01T02:11:34;4.80;99.90
5394;DHT22;2720;52.396;10.064;2023-02-01T02:14:01;4.90;99.90
5394;DHT22;2720;52.396;10.064;2023-02-01T02:16:40;4.90;99.90
5394;DHT22;2720;52.396;10.064;2023-02-01T02:19:43;4.90;99.90
5394;DHT22;2720;52.396;10.064;2023-02-01T02:22:42;5.00;99.90
5394;DHT22;2720;52.396;10.064;2023-02-01T02:25:42;5.00;99.90
5394;DHT22;2720;52.396;10.064;2023-02-01T02:28:23;5.00;99.90
5394;DHT22;2720;52.396;10.064;2023-02-01T02:31:14;4.90;99.90
5394;DHT22;2720;52.396;10.064;2023-02-01T02:33:58;4.90;99.90
5394;DHT22;2720;52.396;10.064;2023-02-01T02:36:39;5.00;99.90
5394;DHT22;2720;52.396;10.064;2023-02-01T02:39:16;4.90;99.90
5394;DHT22;2720;52.396;10.064;2023-02-01T02:41:51;5.00;99.90
5394;DHT22;2720;52.396;10.064;2023-02-01T02:44:45;5.00;99.90
5394;DHT22;2720;52.396;10.064;2023-02-01T02:47:35;5.00;99.90
5394;DHT22;2720;52.396;10.064;2023-02-01T02:50:11;5.00;99.90
5394;DHT22;2720;52.396;10.064;2023-02-01T02:53:00;4.90;99.90
5394;DHT22;2720;52.396;10.064;2023-02-01T02:55:46;4.90;99.90
5394;DHT22;2720;52.396;10.064;2023-02-01T02:58:14;4.80;99.90
5394;DHT22;2720;52.396;10.064;2023-02-01T03:00:59;4.80;99.90
5394;DHT22;2720;52.396;10.064;2023-02-01T03:03:48;4.80;99.90
5394;DHT22;2720;52.396;10.064;2023-02-01T03:06:37;4.80;99.90
5394;DHT22;2720;52.396;10.064;2023-02-01T03:09:10;4.80;99.90
5394;DHT22;2720;52.396;10.064;2023-02-01T03:11:40;4.80;99.90
5394;DHT22;2720;52.396;10.064;2023-02-01T03:14:29;4.80;99.90
5394;DHT22;2720;52.396;10.064;2023-02-01T03:17:00;4.90;99.90
5394;DHT22;2720;52.396;10.064;2023-02-01T03:19:34;4.90;99.90
5394;DHT22;2720;52.396;10.064;2023-02-01T03:22:05;4.90;99.90
5394;DHT22;2720;52.396;10.064;2023-02-01T03:24:37;4.90;99.90
5394;DHT22;2720;52.396;10.064;2023-02-01T03:27:09;5.00;99.90
5394;DHT22;2720;52.396;10.064;2023-02-01T03:29:42;5.00;99.90
5394;DHT22;2720;52.396;10.064;2023-02-01T03:32:11;5.00;99.90
5394;DHT22;2720;52.396;10.064;2023-02-01T03:34:38;5.00;99.90
5394;DHT22;2720;52.396;10.064;2023-02-01T03:37:09;5.00;99.90
5394;DHT22;2720;52.396;10.064;2023-02-01T03:39:41;5.00;99.90
5394;DHT22;2720;52.396;10.064;2023-02-01T03:42:14;5.00;99.90
5394;DHT22;2720;52.396;10.064;2023-02-01T03:44:48;5.00;99.90
5394;DHT22;2720;52.396;10.064;2023-02-01T03:47:18;5.00;99.90
5394;DHT22;2720;52.396;10.064;2023-02-01T03:49:49;5.10;99.90
5394;DHT22;2720;52.396;10.064;2023-02-01T03:52:21;5.00;99.90
5394;DHT22;2720;52.396;10.064;2023-02-01T03:54:49;5.00;99.90
5394;DHT22;2720;52.396;10.064;2023-02-01T03:57:22;5.00;99.90
5394;DHT22;2720;52.396;10.064;2023-02-01T03:59:51;5.00;99.90
5394;DHT22;2720;52.396;10.064;2023-02-01T04:02:18;4.90;99.90
5394;DHT22;2720;52.396;10.064;2023-02-01T04:04:45;4.90;99.90
5394;DHT22;2720;52.396;10.064;2023-02-01T04:07:12;4.90;99.90
5394;DHT22;2720;52.396;10.064;2023-02-01T04:09:40;4.90;99.90
5394;DHT22;2720;52.396;10.064;2023-02-01T04:12:07;4.90;99.90
5394;DHT22;2720;52.396;10.064;2023-02-01T04:14:34;4.90;99.90
5394;DHT22;2720;52.396;10.064;2023-02-01T04:17:01;4.90;99.90
5394;DHT22;2720;52.396;10.064;2023-02-01T04:19:28;5.00;99.90
5394;DHT22;2720;52.396;10.064;2023-02-01T04:21:55;4.90;99.90
5394;DHT22;2720;52.396;10.064;2023-02-01T04:24:22;4.90;99.90
5394;DHT22;2720;52.396;10.064;2023-02-01T04:26:51;4.90;99.90
5394;DHT22;2720;52.396;10.064;2023-02-01T04:29:17;5.00;99.90
5394;DHT22;2720;52.396;10.064;2023-02-01T04:31:44;5.00;99.90
5394;DHT22;2720;52.396;10.064;2023-02-01T04:34:11;5.10;99.90
5394;DHT22;2720;52.396;10.064;2023-02-01T04:36:38;5.10;99.90
5394;DHT22;2720;52.396;10.064;2023-02-01T04:39:05;5.10;99.90
5394;DHT22;2720;52.396;10.064;2023-02-01T04:41:32;5.20;99.90
5394;DHT22;2720;52.396;10.064;2023-02-01T04:44:01;5.20;99.90
5394;DHT22;2720;52.396;10.064;2023-02-01T04:46:28;5.10;99.90
5394;DHT22;2720;52.396;10.064;2023-02-01T04:48:55;5.20;99.90
5394;DHT22;2720;52.396;10.064;2023-02-01T04:51:22;5.20;99.90
5394;DHT22;2720;52.396;10.064;2023-02-01T04:53:49;5.60;99.90
5394;DHT22;2720;52.396;10.064;2023-02-01T04:56:16;5.20;99.90
5394;DHT22;2720;52.396;10.064;2023-02-01T04:58:43;5.20;99.90
5394;DHT22;2720;52.396;10.064;2023-02-01T05:01:11;5.10;99.90
5394;DHT22;2720;52.396;10.064;2023-02-01T05:03:38;5.20;99.90
5394;DHT22;2720;52.396;10.064;2023-02-01T05:06:05;5.10;99.90
5394;DHT22;2720;52.396;10.064;2023-02-01T05:08:32;5.10;99.90
5394;DHT22;2720;52.396;10.064;2023-02-01T05:10:59;5.00;99.90
5394;DHT22;2720;52.396;10.064;2023-02-01T05:13:28;5.00;99.90
5394;DHT22;2720;52.396;10.064;2023-02-01T05:16:14;5.00;99.90
5394;DHT22;2720;52.396;10.064;2023-02-01T05:18:42;5.00;99.90
5394;DHT22;2720;52.396;10.064;2023-02-01T05:21:08;4.90;99.90
5394;DHT22;2720;52.396;10.064;2023-02-01T05:23:35;4.80;99.90
5394;DHT22;2720;52.396;10.064;2023-02-01T05:26:23;4.70;99.90
5394;DHT22;2720;52.396;10.064;2023-02-01T05:28:50;4.70;99.90
5394;DHT22;2720;52.396;10.064;2023-02-01T05:31:18;4.60;99.90
5394;DHT22;2720;52.396;10.064;2023-02-01T05:33:45;4.50;99.90
5394;DHT22;2720;52.396;10.064;2023-02-01T05:36:12;4.40;99.90
5394;DHT22;2720;52.396;10.064;2023-02-01T05:38:39;4.40;99.90
5394;DHT22;2720;52.396;10.064;2023-02-01T05:41:06;4.40;99.90
5394;DHT22;2720;52.396;10.064;2023-02-01T05:43:34;4.40;99.90
5394;DHT22;2720;52.396;10.064;2023-02-01T05:46:01;4.30;99.90
5394;DHT22;2720;52.396;10.064;2023-02-01T05:48:29;4.30;99.90
5394;DHT22;2720;52.396;10.064;2023-02-01T05:50:56;4.30;99.90
5394;DHT22;2720;52.396;10.064;2023-02-01T05:53:23;4.30;99.90
5394;DHT22;2720;52.396;10.064;2023-02-01T05:55:50;4.30;99.90
5394;DHT22;2720;52.396;10.064;2023-02-01T05:58:17;4.20;99.90
5394;DHT22;2720;52.396;10.064;2023-02-01T06:00:44;4.10;99.90
5394;DHT22;2720;52.396;10.064;2023-02-01T06:03:11;4.30;99.90
5394;DHT22;2720;52.396;10.064;2023-02-01T06:05:40;4.30;99.90
5394;DHT22;2720;52.396;10.064;2023-02-01T06:08:06;4.30;99.90
5394;DHT22;2720;52.396;10.064;2023-02-01T06:10:34;4.30;99.90
5394;DHT22;2720;52.396;10.064;2023-02-01T06:13:01;4.30;99.90
5394;DHT22;2720;52.396;10.064;2023-02-01T06:15:29;4.40;99.90
5394;DHT22;2720;52.396;10.064;2023-02-01T06:17:56;4.40;99.90
5394;DHT22;2720;52.396;10.064;2023-02-01T06:20:24;4.40;99.90
5394;DHT22;2720;52.396;10.064;2023-02-01T06:22:52;4.50;99.90
5394;DHT22;2720;52.396;10.064;2023-02-01T06:25:19;4.50;99.90
5394;DHT22;2720;52.396;10.064;2023-02-01T06:27:46;4.60;99.90
5394;DHT22;2720;52.396;10.064;2023-02-01T06:30:14;4.60;99.90
5394;DHT22;2720;52.396;10.064;2023-02-01T06:32:41;4.60;99.90
5394;DHT22;2720;52.396;10.064;2023-02-01T06:35:09;4.60;99.90
5394;DHT22;2720;52.396;10.064;2023-02-01T06:37:42;4.50;99.90
5394;DHT22;2720;52.396;10.064;2023-02-01T06:40:11;4.50;99.90
5394;DHT22;2720;52.396;10.064;2023-02-01T06:42:38;4.50;99.90
5394;DHT22;2720;52.396;10.064;2023-02-01T06:45:06;4.40;99.90
5394;DHT22;2720;52.396;10.064;2023-02-01T06:47:33;4.40;99.90
5394;DHT22;2720;52.396;10.064;2023-02-01T06:50:00;4.40;99.90
5394;DHT22;2720;52.396;10.064;2023-02-01T06:52:27;4.50;99.90
5394;DHT22;2720;52.396;10.064;2023-02-01T06:54:54;4.50;99.90
5394;DHT22;2720;52.396;10.064;2023-02-01T06:57:22;4.50;99.90
5394;DHT22;2720;52.396;10.064;2023-02-01T06:59:50;4.50;99.90
5394;DHT22;2720;52.396;10.064;2023-02-01T07:02:17;4.50;99.90
5394;DHT22;2720;52.396;10.064;2023-02-01T07:04:45;4.60;99.90
5394;DHT22;2720;52.396;10.064;2023-02-01T07:07:11;4.60;99.90
5394;DHT22;2720;52.396;10.064;2023-02-01T07:09:39;4.50;99.90
5394;DHT22;2720;52.396;10.064;2023-02-01T07:12:07;4.60;99.90
5394;DHT22;2720;52.396;10.064;2023-02-01T07:14:35;4.50;99.90
5394;DHT22;2720;52.396;10.064;2023-02-01T07:17:02;4.50;99.90
5394;DHT22;2720;52.396;10.064;2023-02-01T07:19:29;4.50;99.90
5394;DHT22;2720;52.396;10.064;2023-02-01T07:21:56;4.50;99.90
5394;DHT22;2720;52.396;10.064;2023-02-01T07:24:23;4.50;99.90
5394;DHT22;2720;52.396;10.064;2023-02-01T07:26:50;4.60;99.90
5394;DHT22;2720;52.396;10.064;2023-02-01T07:29:17;4.60;99.90
5394;DHT22;2720;52.396;10.064;2023-02-01T07:31:46;4.60;99.90
5394;DHT22;2720;52.396;10.064;2023-02-01T07:34:13;4.70;99.90
5394;DHT22;2720;52.396;10.064;2023-02-01T07:36:40;4.70;99.90
5394;DHT22;2720;52.396;10.064;2023-02-01T07:39:07;4.70;99.90
5394;DHT22;2720;52.396;10.064;2023-02-01T07:41:34;4.70;99.90
5394;DHT22;2720;52.396;10.064;2023-02-01T07:44:01;4.70;99.90
5394;DHT22;2720;52.396;10.064;2023-02-01T07:46:28;4.80;99.90
5394;DHT22;2720;52.396;10.064;2023-02-01T07:48:56;4.80;99.90
5394;DHT22;2720;52.396;10.064;2023-02-01T07:51:23;4.70;99.90
5394;DHT22;2720;52.396;10.064;2023-02-01T07:53:50;4.80;99.90
5394;DHT22;2720;52.396;10.064;2023-02-01T07:56:19;4.70;99.90
5394;DHT22;2720;52.396;10.064;2023-02-01T07:58:48;4.80;99.90
5394;DHT22;2720;52.396;10.064;2023-02-01T08:01:16;4.70;99.90
5394;DHT22;2720;52.396;10.064;2023-02-01T08:03:46;4.70;99.90
5394;DHT22;2720;52.396;10.064;2023-02-01T08:06:14;4.80;99.90
5394;DHT22;2720;52.396;10.064;2023-02-01T08:08:41;4.80;99.90
5394;DHT22;2720;52.396;10.064;2023-02-01T08:11:10;4.80;99.90
5394;DHT22;2720;52.396;10.064;2023-02-01T08:13:37;4.80;99.90
5394;DHT22;2720;52.396;10.064;2023-02-01T08:16:07;4.90;99.90
5394;DHT22;2720;52.396;10.064;2023-02-01T08:18:35;4.80;99.90
5394;DHT22;2720;52.396;10.064;2023-02-01T08:21:06;4.80;99.90
5394;DHT22;2720;52.396;10.064;2023-02-01T08:23:35;4.80;99.90
5394;DHT22;2720;52.396;10.064;2023-02-01T08:26:07;4.80;99.90
5394;DHT22;2720;52.396;10.064;2023-02-01T08:28:35;4.90;99.90
5394;DHT22;2720;52.396;10.064;2023-02-01T08:31:05;5.00;99.90
5394;DHT22;2720;52.396;10.064;2023-02-01T08:33:32;4.80;99.90
5394;DHT22;2720;52.396;10.064;2023-02-01T08:36:01;4.50;99.90
5394;DHT22;2720;52.396;10.064;2023-02-01T08:38:28;4.30;99.90
5394;DHT22;2720;52.396;10.064;2023-02-01T08:40:57;4.30;99.90
5394;DHT22;2720;52.396;10.064;2023-02-01T08:43:24;4.20;99.90
5394;DHT22;2720;52.396;10.064;2023-02-01T08:45:54;4.40;99.90
5394;DHT22;2720;52.396;10.064;2023-02-01T08:48:21;4.40;99.90
5394;DHT22;2720;52.396;10.064;2023-02-01T08:50:48;4.60;99.90
5394;DHT22;2720;52.396;10.064;2023-02-01T08:53:15;4.70;99.90
5394;DHT22;2720;52.396;10.064;2023-02-01T08:55:42;4.70;99.90
5394;DHT22;2720;52.396;10.064;2023-02-01T08:58:10;4.80;99.90
5394;DHT22;2720;52.396;10.064;2023-02-01T09:00:37;4.80;99.90
5394;DHT22;2720;52.396;10.064;2023-02-01T09:03:04;4.90;99.90
5394;DHT22;2720;52.396;10.064;2023-02-01T09:05:31;5.00;99.90
5394;DHT22;2720;52.396;10.064;2023-02-01T09:07:58;5.00;99.90
5394;DHT22;2720;52.396;10.064;2023-02-01T09:10:25;5.10;99.90
5394;DHT22;2720;52.396;10.064;2023-02-01T09:12:52;5.10;99.90
5394;DHT22;2720;52.396;10.064;2023-02-01T09:15:20;5.20;99.90
5394;DHT22;2720;52.396;10.064;2023-02-01T09:17:47;5.30;99.90
5394;DHT22;2720;52.396;10.064;2023-02-01T09:20:14;5.50;99.90
5394;DHT22;2720;52.396;10.064;2023-02-01T09:22:41;5.60;99.90
5394;DHT22;2720;52.396;10.064;2023-02-01T09:25:09;5.60;99.90
5394;DHT22;2720;52.396;10.064;2023-02-01T09:27:36;5.70;99.90
5394;DHT22;2720;52.396;10.064;2023-02-01T09:30:03;5.80;99.90
5394;DHT22;2720;52.396;10.064;2023-02-01T09:32:32;6.00;99.90
5394;DHT22;2720;52.396;10.064;2023-02-01T09:34:59;6.10;99.90
5394;DHT22;2720;52.396;10.064;2023-02-01T09:37:26;6.10;99.90
5394;DHT22;2720;52.396;10.064;2023-02-01T09:39:53;6.20;99.90
5394;DHT22;2720;52.396;10.064;2023-02-01T09:42:30;6.30;99.90
5394;DHT22;2720;52.396;10.064;2023-02-01T09:45:10;6.40;99.90
5394;DHT22;2720;52.396;10.064;2023-02-01T09:47:47;6.40;99.90
5394;DHT22;2720;52.396;10.064;2023-02-01T09:50:17;6.50;99.90
5394;DHT22;2720;52.396;10.064;2023-02-01T09:52:52;6.60;99.90
5394;DHT22;2720;52.396;10.064;2023-02-01T09:55:26;6.70;99.90
5394;DHT22;2720;52.396;10.064;2023-02-01T09:58:00;6.70;99.90
5394;DHT22;2720;52.396;10.064;2023-02-01T10:00:29;6.80;99.90
5394;DHT22;2720;52.396;10.064;2023-02-01T10:02:58;6.70;99.90
5394;DHT22;2720;52.396;10.064;2023-02-01T10:05:41;6.80;99.90
5394;DHT22;2720;52.396;10.064;2023-02-01T10:08:19;6.80;99.90
5394;DHT22;2720;52.396;10.064;2023-02-01T10:10:50;6.80;99.90
5394;DHT22;2720;52.396;10.064;2023-02-01T10:13:31;6.60;99.90
5394;DHT22;2720;52.396;10.064;2023-02-01T10:16:16;6.70;99.90
5394;DHT22;2720;52.396;10.064;2023-02-01T10:19:04;6.80;99.90
5394;DHT22;2720;52.396;10.064;2023-02-01T10:21:43;6.80;99.90
5394;DHT22;2720;52.396;10.064;2023-02-01T10:24:20;6.70;99.90
5394;DHT22;2720;52.396;10.064;2023-02-01T10:29:25;6.90;99.90
5394;DHT22;2720;52.396;10.064;2023-02-01T10:31:54;7.00;99.90
5394;DHT22;2720;52.396;10.064;2023-02-01T10:34:27;7.10;99.90
5394;DHT22;2720;52.396;10.064;2023-02-01T10:36:56;7.20;99.90
5394;DHT22;2720;52.396;10.064;2023-02-01T10:39:24;7.30;99.90
5394;DHT22;2720;52.396;10.064;2023-02-01T10:41:51;7.30;99.90
5394;DHT22;2720;52.396;10.064;2023-02-01T10:44:24;7.30;99.90
5394;DHT22;2720;52.396;10.064;2023-02-01T10:46:52;7.20;99.90
5394;DHT22;2720;52.396;10.064;2023-02-01T10:49:24;7.30;99.90
5394;DHT22;2720;52.396;10.064;2023-02-01T10:51:57;7.40;99.90
5394;DHT22;2720;52.396;10.064;2023-02-01T10:54:33;7.30;99.90
5394;DHT22;2720;52.396;10.064;2023-02-01T10:57:00;7.30;99.90
5394;DHT22;2720;52.396;10.064;2023-02-01T10:59:29;7.30;99.90
5394;DHT22;2720;52.396;10.064;2023-02-01T11:01:59;7.20;99.90
5394;DHT22;2720;52.396;10.064;2023-02-01T11:04:33;7.20;99.90
5394;DHT22;2720;52.396;10.064;2023-02-01T11:07:22;7.20;99.90
5394;DHT22;2720;52.396;10.064;2023-02-01T11:09:51;7.10;99.90
5394;DHT22;2720;52.396;10.064;2023-02-01T11:12:28;7.10;99.90
5394;DHT22;2720;52.396;10.064;2023-02-01T11:15:03;7.10;99.90
5394;DHT22;2720;52.396;10.064;2023-02-01T11:17:34;7.00;99.90
5394;DHT22;2720;52.396;10.064;2023-02-01T11:20:06;7.10;99.90
5394;DHT22;2720;52.396;10.064;2023-02-01T11:22:33;7.00;99.90
5394;DHT22;2720;52.396;10.064;2023-02-01T11:25:02;6.90;99.90
5394;DHT22;2720;52.396;10.064;2023-02-01T11:27:34;7.00;99.90
5394;DHT22;2720;52.396;10.064;2023-02-01T11:30:02;6.90;99.90
5394;DHT22;2720;52.396;10.064;2023-02-01T11:32:30;6.80;99.90
5394;DHT22;2720;52.396;10.064;2023-02-01T11:35:00;6.80;99.90
5394;DHT22;2720;52.396;10.064;2023-02-01T11:37:32;6.70;99.90
5394;DHT22;2720;52.396;10.064;2023-02-01T11:40:02;6.80;99.90
5394;DHT22;2720;52.396;10.064;2023-02-01T11:42:30;7.00;99.90
5394;DHT22;2720;52.396;10.064;2023-02-01T11:47:44;7.20;99.90
5394;DHT22;2720;52.396;10.064;2023-02-01T11:50:15;7.30;99.90
5394;DHT22;2720;52.396;10.064;2023-02-01T11:53:08;7.30;99.90
5394;DHT22;2720;52.396;10.064;2023-02-01T11:55:53;7.30;99.90
5394;DHT22;2720;52.396;10.064;2023-02-01T11:58:47;7.40;99.90
5394;DHT22;2720;52.396;10.064;2023-02-01T12:01:30;7.50;99.90
5394;DHT22;2720;52.396;10.064;2023-02-01T12:06:54;7.60;99.90
5394;DHT22;2720;52.396;10.064;2023-02-01T12:09:42;7.80;99.90
5394;DHT22;2720;52.396;10.064;2023-02-01T12:12:18;7.90;99.90
5394;DHT22;2720;52.396;10.064;2023-02-01T12:20:48;7.60;99.90
5394;DHT22;2720;52.396;10.064;2023-02-01T12:23:27;7.40;99.90
5394;DHT22;2720;52.396;10.064;2023-02-01T12:26:08;7.30;99.90
5394;DHT22;2720;52.396;10.064;2023-02-01T12:28:53;7.10;99.90
5394;DHT22;2720;52.396;10.064;2023-02-01T12:31:39;6.90;99.90
5394;DHT22;2720;52.396;10.064;2023-02-01T12:34:33;6.80;99.90
5394;DHT22;2720;52.396;10.064;2023-02-01T12:37:11;6.70;99.90
5394;DHT22;2720;52.396;10.064;2023-02-01T12:39:47;6.70;99.90
5394;DHT22;2720;52.396;10.064;2023-02-01T12:42:21;6.60;99.90
5394;DHT22;2720;52.396;10.064;2023-02-01T12:44:53;6.40;99.90
5394;DHT22;2720;52.396;10.064;2023-02-01T12:47:26;6.30;99.90
5394;DHT22;2720;52.396;10.064;2023-02-01T12:49:59;6.20;99.90
5394;DHT22;2720;52.396;10.064;2023-02-01T12:52:34;6.00;99.90
5394;DHT22;2720;52.396;10.064;2023-02-01T12:55:07;5.90;99.90
5394;DHT22;2720;52.396;10.064;2023-02-01T12:57:40;5.80;99.90
5394;DHT22;2720;52.396;10.064;2023-02-01T13:00:18;5.80;99.90
5394;DHT22;2720;52.396;10.064;2023-02-01T13:02:52;5.70;99.90
5394;DHT22;2720;52.396;10.064;2023-02-01T13:05:23;5.80;99.90
5394;DHT22;2720;52.396;10.064;2023-02-01T13:07:58;5.70;99.90
5394;DHT22;2720;52.396;10.064;2023-02-01T13:10:32;5.60;99.90
5394;DHT22;2720;52.396;10.064;2023-02-01T13:13:10;5.50;99.90
5394;DHT22;2720;52.396;10.064;2023-02-01T13:15:41;5.50;99.90
5394;DHT22;2720;52.396;10.064;2023-02-01T13:18:14;5.50;99.90
5394;DHT22;2720;52.396;10.064;2023-02-01T13:20:49;5.50;99.90
5394;DHT22;2720;52.396;10.064;2023-02-01T13:23:23;5.40;99.90
5394;DHT22;2720;52.396;10.064;2023-02-01T13:25:53;5.50;99.90
5394;DHT22;2720;52.396;10.064;2023-02-01T13:28:25;5.40;99.90
5394;DHT22;2720;52.396;10.064;2023-02-01T13:31:21;5.40;99.90
5394;DHT22;2720;52.396;10.064;2023-02-01T13:34:03;5.20;99.90
5394;DHT22;2720;52.396;10.064;2023-02-01T13:36:54;5.00;99.90
5394;DHT22;2720;52.396;10.064;2023-02-01T13:39:43;5.00;99.90
5394;DHT22;2720;52.396;10.064;2023-02-01T13:42:16;4.60;99.90
5394;DHT22;2720;52.396;10.064;2023-02-01T13:44:48;4.00;99.90
5394;DHT22;2720;52.396;10.064;2023-02-01T13:47:24;3.90;99.90
5394;DHT22;2720;52.396;10.064;2023-02-01T13:49:54;3.90;99.90
5394;DHT22;2720;52.396;10.064;2023-02-01T13:52:30;3.80;99.90
5394;DHT22;2720;52.396;10.064;2023-02-01T13:55:13;3.80;99.90
5394;DHT22;2720;52.396;10.064;2023-02-01T13:57:42;3.80;99.90
5394;DHT22;2720;52.396;10.064;2023-02-01T14:00:25;3.80;99.90
5394;DHT22;2720;52.396;10.064;2023-02-01T14:03:14;3.90;99.90
5394;DHT22;2720;52.396;10.064;2023-02-01T14:06:14;3.80;99.90
5394;DHT22;2720;52.396;10.064;2023-02-01T14:08:44;3.80;99.90
5394;DHT22;2720;52.396;10.064;2023-02-01T14:11:42;3.70;99.90
5394;DHT22;2720;52.396;10.064;2023-02-01T14:14:44;3.60;99.90
5394;DHT22;2720;52.396;10.064;2023-02-01T14:17:39;3.50;99.90
5394;DHT22;2720;52.396;10.064;2023-02-01T14:23:16;3.40;99.90
5394;DHT22;2720;52.396;10.064;2023-02-01T14:25:44;3.40;99.90
5394;DHT22;2720;52.396;10.064;2023-02-01T14:28:23;3.40;99.90
5394;DHT22;2720;52.396;10.064;2023-02-01T14:30:51;3.50;99.90
5394;DHT22;2720;52.396;10.064;2023-02-01T14:33:22;3.50;99.90
5394;DHT22;2720;52.396;10.064;2023-02-01T14:36:04;3.50;99.90
5394;DHT22;2720;52.396;10.064;2023-02-01T14:38:34;3.50;99.90
5394;DHT22;2720;52.396;10.064;2023-02-01T14:41:28;3.50;99.90
5394;DHT22;2720;52.396;10.064;2023-02-01T14:50:13;3.70;99.90
5394;DHT22;2720;52.396;10.064;2023-02-01T14:52:46;3.40;99.90
5394;DHT22;2720;52.396;10.064;2023-02-01T14:55:16;3.40;99.90
5394;DHT22;2720;52.396;10.064;2023-02-01T14:57:48;3.40;99.90
5394;DHT22;2720;52.396;10.064;2023-02-01T15:00:21;3.30;99.90
5394;DHT22;2720;52.396;10.064;2023-02-01T15:02:50;3.20;99.90
5394;DHT22;2720;52.396;10.064;2023-02-01T15:05:40;3.10;99.90
5394;DHT22;2720;52.396;10.064;2023-02-01T15:08:13;3.00;99.90
5394;DHT22;2720;52.396;10.064;2023-02-01T15:10:44;2.90;99.90
5394;DHT22;2720;52.396;10.064;2023-02-01T15:13:22;2.90;99.90
5394;DHT22;2720;52.396;10.064;2023-02-01T15:16:04;2.90;99.90
5394;DHT22;2720;52.396;10.064;2023-02-01T15:18:31;2.90;99.90
5394;DHT22;2720;52.396;10.064;2023-02-01T15:21:01;2.90;99.90
5394;DHT22;2720;52.396;10.064;2023-02-01T15:23:29;2.90;99.90
5394;DHT22;2720;52.396;10.064;2023-02-01T15:25:56;2.90;99.90
5394;DHT22;2720;52.396;10.064;2023-02-01T15:28:25;2.80;99.90
5394;DHT22;2720;52.396;10.064;2023-02-01T15:30:54;2.80;99.90
5394;DHT22;2720;52.396;10.064;2023-02-01T15:33:22;2.80;99.90
5394;DHT22;2720;52.396;10.064;2023-02-01T15:35:50;2.70;99.90
5394;DHT22;2720;52.396;10.064;2023-02-01T15:38:37;2.60;99.90
5394;DHT22;2720;52.396;10.064;2023-02-01T15:41:07;2.80;99.90
5394;DHT22;2720;52.396;10.064;2023-02-01T15:43:37;2.80;99.90
5394;DHT22;2720;52.396;10.064;2023-02-01T15:46:09;2.80;99.90
5394;DHT22;2720;52.396;10.064;2023-02-01T15:48:40;2.70;99.90
5394;DHT22;2720;52.396;10.064;2023-02-01T15:51:16;2.80;99.90
5394;DHT22;2720;52.396;10.064;2023-02-01T15:53:56;2.70;99.90
5394;DHT22;2720;52.396;10.064;2023-02-01T15:56:27;2.70;99.90
5394;DHT22;2720;52.396;10.064;2023-02-01T15:58:59;2.70;99.90
5394;DHT22;2720;52.396;10.064;2023-02-01T16:01:27;2.80;99.90
5394;DHT22;2720;52.396;10.064;2023-02-01T16:04:14;2.80;99.90
5394;DHT22;2720;52.396;10.064;2023-02-01T16:06:46;2.70;99.90
5394;DHT22;2720;52.396;10.064;2023-02-01T16:09:17;2.70;99.90
5394;DHT22;2720;52.396;10.064;2023-02-01T16:11:52;2.70;99.90
5394;DHT22;2720;52.396;10.064;2023-02-01T16:14:20;2.70;99.90
5394;DHT22;2720;52.396;10.064;2023-02-01T16:16:48;2.80;99.90
5394;DHT22;2720;52.396;10.064;2023-02-01T16:19:15;2.80;99.90
5394;DHT22;2720;52.396;10.064;2023-02-01T16:21:42;2.80;99.90
5394;DHT22;2720;52.396;10.064;2023-02-01T16:24:09;2.90;99.90
5394;DHT22;2720;52.396;10.064;2023-02-01T16:26:37;2.70;99.90
5394;DHT22;2720;52.396;10.064;2023-02-01T16:29:05;2.80;99.90
5394;DHT22;2720;52.396;10.064;2023-02-01T16:31:36;2.80;99.90
5394;DHT22;2720;52.396;10.064;2023-02-01T16:34:04;2.80;99.90
5394;DHT22;2720;52.396;10.064;2023-02-01T16:36:32;2.90;99.90
5394;DHT22;2720;52.396;10.064;2023-02-01T16:38:59;2.90;99.90
5394;DHT22;2720;52.396;10.064;2023-02-01T16:41:28;3.00;99.90
5394;DHT22;2720;52.396;10.064;2023-02-01T16:43:57;3.00;99.90
5394;DHT22;2720;52.396;10.064;2023-02-01T16:46:27;3.00;99.90
5394;DHT22;2720;52.396;10.064;2023-02-01T16:48:57;3.00;99.90
5394;DHT22;2720;52.396;10.064;2023-02-01T16:51:27;3.00;99.90
5394;DHT22;2720;52.396;10.064;2023-02-01T16:53:54;3.00;99.90